Time;durP1;ratioP1;P1;durP2;ratioP2;P2;SDS_P1;SDS_P2;PMS_P1;PMS_P2;Temp;Humidity;BMP_temperature;BMP_pressure;BME280_temperature;BME280_humidity;BME280_pressure;Samples;Min_cycle;Max_cycle;Signal;HPM_P1;HPM_P2
2022/04/27 00:01:31;;;;;;;8.73;6.30;;;6.10;99.90;;;;;;7315237;32;20519;-59
2022/04/27 00:05:33;;;;;;;9.10;6.30;;;6.10;99.90;;;;;;7319926;32;20579;-59
2022/04/27 00:09:35;;;;;;;11.52;6.62;;;6.10;99.90;;;;;;7315818;32;20118;-59
2022/04/27 00:13:37;;;;;;;11.02;7.28;;;6.20;99.90;;;;;;7315201;32;20302;-59
2022/04/27 00:17:39;;;;;;;11.85;7.03;;;6.10;99.90;;;;;;7319925;32;20835;-59
2022/04/27 00:21:41;;;;;;;13.48;7.07;;;6.20;99.90;;;;;;7321263;32;20107;-59
2022/04/27 00:25:44;;;;;;;11.12;7.35;;;6.20;99.90;;;;;;7321478;32;20126;-59
2022/04/27 00:29:46;;;;;;;11.93;7.32;;;6.20;99.90;;;;;;7318649;32;20169;-59
2022/04/27 00:33:47;;;;;;;11.98;7.40;;;6.20;99.90;;;;;;7319591;32;20546;-59
2022/04/27 00:37:49;;;;;;;12.88;7.90;;;6.20;99.90;;;;;;7319952;32;20099;-59
2022/04/27 00:42:00;;;;;;;12.63;7.80;;;6.30;99.90;;;;;;7318042;32;20498;-59
2022/04/27 00:46:02;;;;;;;12.63;6.90;;;6.30;99.90;;;;;;7324340;32;20154;-59
2022/04/27 00:50:05;;;;;;;11.55;7.70;;;6.40;99.90;;;;;;7324270;32;20111;-57
2022/04/27 00:54:06;;;;;;;10.45;7.40;;;6.40;99.90;;;;;;7320305;32;20143;-59
2022/04/27 00:58:12;;;;;;;9.77;7.12;;;6.40;99.90;;;;;;7317800;32;20484;-59
2022/04/27 01:02:16;;;;;;;11.85;8.20;;;6.40;99.90;;;;;;7315568;32;20103;-59
2022/04/27 01:06:18;;;;;;;11.98;7.55;;;6.40;99.90;;;;;;7315125;32;20271;-59
2022/04/27 01:10:20;;;;;;;10.68;8.10;;;6.40;99.90;;;;;;7314819;32;20694;-59
2022/04/27 01:14:22;;;;;;;9.98;7.45;;;6.40;99.90;;;;;;7318820;32;20153;-59
2022/04/27 01:18:24;;;;;;;15.48;8.80;;;6.40;99.90;;;;;;7321265;32;20103;-57
2022/04/27 01:22:28;;;;;;;16.87;10.15;;;6.50;99.90;;;;;;7324463;32;20126;-57
2022/04/27 01:26:29;;;;;;;13.50;8.88;;;6.50;99.90;;;;;;7320857;32;20586;-57
2022/04/27 01:30:31;;;;;;;10.05;7.57;;;6.50;99.90;;;;;;7319617;32;20100;-57
2022/04/27 01:34:33;;;;;;;10.48;7.95;;;6.60;99.90;;;;;;7316107;32;20186;-57
2022/04/27 01:38:40;;;;;;;11.90;7.80;;;6.50;99.90;;;;;;7326083;32;20297;-57
2022/04/27 01:42:42;;;;;;;10.38;7.47;;;6.50;99.90;;;;;;7301997;32;20106;-58
2022/04/27 01:46:44;;;;;;;12.02;7.25;;;6.50;99.90;;;;;;7318696;32;20304;-57
2022/04/27 01:50:45;;;;;;;9.43;7.93;;;6.50;99.90;;;;;;7311383;32;20242;-57
2022/04/27 01:54:47;;;;;;;15.10;7.57;;;6.50;99.90;;;;;;7320392;32;20212;-57
2022/04/27 01:58:49;;;;;;;12.37;8.38;;;6.40;99.90;;;;;;7321286;32;20123;-58
2022/04/27 02:02:50;;;;;;;10.60;8.18;;;6.40;99.90;;;;;;7327665;32;20243;-56
2022/04/27 02:06:52;;;;;;;12.15;8.32;;;6.30;99.90;;;;;;7327694;32;20196;-57
2022/04/27 02:10:54;;;;;;;12.10;8.30;;;6.30;99.90;;;;;;7320700;32;20138;-60
2022/04/27 02:14:56;;;;;;;10.77;7.72;;;6.20;99.90;;;;;;7324053;32;20162;-57
2022/04/27 02:18:58;;;;;;;16.42;8.32;;;6.10;99.90;;;;;;7330699;32;20216;-57
2022/04/27 02:22:59;;;;;;;14.32;8.40;;;6.00;99.90;;;;;;7315963;32;20103;-57
2022/04/27 02:27:01;;;;;;;9.98;8.15;;;6.00;99.90;;;;;;7326251;32;20371;-57
2022/04/27 02:31:03;;;;;;;10.32;8.20;;;5.80;99.90;;;;;;7321607;32;20096;-57
2022/04/27 02:35:06;;;;;;;10.30;8.30;;;5.80;99.90;;;;;;7321012;32;20110;-57
2022/04/27 02:39:07;;;;;;;12.30;8.45;;;5.70;99.90;;;;;;7331787;32;20211;-57
2022/04/27 02:43:09;;;;;;;15.65;9.00;;;5.70;99.90;;;;;;7324189;32;20107;-57
2022/04/27 02:47:11;;;;;;;12.10;8.02;;;5.70;99.90;;;;;;7311527;32;20551;-57
2022/04/27 02:55:33;;;;;;;11.55;8.13;;;5.50;99.90;;;;;;7324070;32;20497;-57
2022/04/27 02:59:34;;;;;;;10.98;8.50;;;5.40;99.90;;;;;;7326470;32;20552;-57
2022/04/27 03:03:36;;;;;;;16.00;9.25;;;5.40;99.90;;;;;;7322569;32;20429;-57
2022/04/27 03:07:38;;;;;;;15.40;8.57;;;5.30;99.90;;;;;;7319440;32;20201;-57
2022/04/27 03:11:39;;;;;;;11.55;8.38;;;5.20;99.90;;;;;;7317909;32;20207;-57
2022/04/27 03:15:41;;;;;;;13.88;8.88;;;5.10;99.90;;;;;;7322678;32;20100;-57
2022/04/27 03:19:43;;;;;;;12.60;8.70;;;5.00;99.90;;;;;;7318099;32;20131;-57
2022/04/27 03:23:45;;;;;;;11.52;8.60;;;5.00;99.90;;;;;;7318657;32;20464;-58
2022/04/27 03:27:46;;;;;;;15.35;9.18;;;4.90;99.90;;;;;;7320248;32;20100;-58
2022/04/27 03:31:48;;;;;;;10.00;8.05;;;4.80;99.90;;;;;;7320982;32;20205;-58
2022/04/27 03:35:49;;;;;;;15.40;9.20;;;4.70;99.90;;;;;;7316692;32;20269;-57
2022/04/27 03:39:52;;;;;;;14.23;8.77;;;4.70;99.90;;;;;;7319969;32;20126;-58
2022/04/27 03:43:54;;;;;;;14.02;9.43;;;4.70;99.90;;;;;;7334113;32;20099;-57
2022/04/27 03:47:56;;;;;;;12.75;8.73;;;4.70;99.90;;;;;;7316432;32;20182;-57
2022/04/27 03:51:58;;;;;;;15.07;8.50;;;4.50;99.90;;;;;;7320602;32;20232;-57
2022/04/27 03:56:00;;;;;;;16.60;9.38;;;4.50;99.90;;;;;;7322141;32;20182;-57
2022/04/27 04:00:03;;;;;;;12.98;9.13;;;4.50;99.90;;;;;;7318064;32;20107;-57
2022/04/27 04:04:05;;;;;;;11.45;9.00;;;4.50;99.90;;;;;;7315604;32;20108;-59
2022/04/27 04:08:07;;;;;;;10.38;8.65;;;4.40;99.90;;;;;;7317875;32;20124;-58
2022/04/27 04:12:09;;;;;;;15.20;9.27;;;4.40;99.90;;;;;;7316343;32;20182;-57
2022/04/27 04:16:11;;;;;;;14.50;9.18;;;4.30;99.90;;;;;;7318975;32;20133;-57
2022/04/27 04:20:19;;;;;;;17.55;9.15;;;4.30;99.90;;;;;;7317932;32;20207;-58
2022/04/27 04:24:21;;;;;;;12.75;9.48;;;4.30;99.90;;;;;;7320646;32;20468;-58
2022/04/27 04:28:30;;;;;;;15.05;9.10;;;4.20;99.90;;;;;;7313838;32;20674;-58
2022/04/27 04:32:37;;;;;;;15.55;8.88;;;4.10;99.90;;;;;;7311226;32;20505;-59
2022/04/27 04:36:39;;;;;;;12.40;8.95;;;4.10;99.90;;;;;;7314397;32;20202;-58
2022/04/27 04:40:40;;;;;;;14.27;10.02;;;4.10;99.90;;;;;;7317208;32;20603;-58
2022/04/27 04:44:42;;;;;;;15.05;10.05;;;4.10;99.90;;;;;;7314596;32;20104;-58
2022/04/27 04:48:44;;;;;;;14.73;9.65;;;4.10;99.90;;;;;;7309596;32;20920;-59
2022/04/27 04:52:48;;;;;;;12.30;9.95;;;4.20;99.90;;;;;;7314807;32;20170;-60
2022/04/27 04:56:50;;;;;;;13.75;9.70;;;4.20;99.90;;;;;;7316216;32;20130;-60
2022/04/27 05:00:52;;;;;;;12.18;9.38;;;4.20;99.90;;;;;;7316556;32;20143;-63
2022/04/27 05:04:53;;;;;;;20.00;13.00;;;4.30;99.90;;;;;;7314087;32;20112;-61
2022/04/27 05:08:55;;;;;;;13.45;11.23;;;4.40;99.90;;;;;;7318742;32;20111;-64
2022/04/27 05:12:56;;;;;;;15.65;10.15;;;4.40;99.90;;;;;;7316135;32;20765;-63
2022/04/27 05:16:58;;;;;;;14.87;11.35;;;4.60;99.90;;;;;;7316270;32;20210;-62
2022/04/27 05:21:00;;;;;;;15.95;11.07;;;4.80;99.90;;;;;;7318017;32;20461;-63
2022/04/27 05:25:03;;;;;;;15.05;11.50;;;5.00;99.90;;;;;;7317777;32;20115;-63
2022/04/27 05:31:54;;;;;;;15.98;12.02;;;5.20;99.90;;;;;;7315082;32;20133;-61
2022/04/27 05:33:29;;;;;;;21.00;14.05;;;5.40;99.90;;;;;;7310123;32;20613;-62
2022/04/27 05:37:31;;;;;;;15.13;11.63;;;5.50;99.90;;;;;;7309197;32;20150;-60
2022/04/27 05:41:34;;;;;;;17.00;12.02;;;5.70;99.90;;;;;;7315453;32;20281;-61
2022/04/27 05:45:36;;;;;;;14.48;11.88;;;5.80;99.90;;;;;;7309027;32;20120;-59
2022/04/27 05:49:37;;;;;;;18.42;11.77;;;6.00;99.90;;;;;;7317116;32;20131;-60
2022/04/27 05:53:41;;;;;;;17.77;13.43;;;6.10;99.90;;;;;;7312751;32;20120;-60
2022/04/27 05:57:43;;;;;;;20.45;12.75;;;6.20;99.90;;;;;;7311717;32;20111;-61
2022/04/27 06:01:45;;;;;;;19.52;13.00;;;6.30;99.90;;;;;;7310977;32;20739;-60
2022/04/27 06:05:52;;;;;;;17.75;12.57;;;6.60;99.90;;;;;;7314157;32;20179;-60
2022/04/27 06:09:54;;;;;;;19.77;12.15;;;6.70;99.90;;;;;;7318332;32;20683;-60
2022/04/27 06:13:55;;;;;;;19.05;11.38;;;6.80;99.90;;;;;;7323331;32;20110;-61
2022/04/27 06:17:57;;;;;;;17.55;11.05;;;6.90;99.90;;;;;;7311492;32;20111;-61
2022/04/27 06:21:59;;;;;;;17.00;11.30;;;7.10;99.90;;;;;;7316014;32;20210;-59
2022/04/27 06:26:00;;;;;;;14.73;10.60;;;7.20;99.90;;;;;;7313710;32;20816;-59
2022/04/27 06:30:05;;;;;;;14.27;10.15;;;7.40;99.90;;;;;;7306512;32;20134;-60
2022/04/27 06:34:07;;;;;;;12.63;9.93;;;7.50;99.90;;;;;;7315815;32;20405;-60
2022/04/27 06:38:08;;;;;;;15.88;10.00;;;7.60;99.90;;;;;;7314870;32;20199;-60
2022/04/27 06:42:30;;;;;;;14.73;10.45;;;7.70;99.90;;;;;;7315291;32;20541;-60
2022/04/27 06:46:31;;;;;;;12.77;9.48;;;7.90;99.90;;;;;;7308733;32;20646;-60
2022/04/27 06:50:33;;;;;;;16.35;9.68;;;8.00;99.90;;;;;;7316604;32;20149;-60
2022/04/27 06:54:35;;;;;;;12.27;8.85;;;8.20;99.90;;;;;;7318736;32;20130;-60
2022/04/27 06:58:37;;;;;;;12.93;9.18;;;8.20;99.90;;;;;;7320413;32;20178;-60
2022/04/27 07:02:39;;;;;;;13.80;8.75;;;8.50;99.90;;;;;;7318587;32;20291;-62
2022/04/27 07:06:41;;;;;;;12.43;8.13;;;8.90;99.90;;;;;;7315078;32;20542;-59
2022/04/27 07:10:43;;;;;;;11.82;8.00;;;9.30;99.90;;;;;;7316410;32;20134;-60
2022/04/27 07:14:46;;;;;;;9.00;7.47;;;10.10;99.90;;;;;;7311177;32;20365;-62
2022/04/27 07:18:50;;;;;;;10.27;6.15;;;10.80;99.90;;;;;;7322361;32;20177;-62
2022/04/27 07:22:51;;;;;;;8.30;5.87;;;11.30;99.90;;;;;;7323819;32;20578;-60
2022/04/27 07:26:53;;;;;;;12.15;5.60;;;11.50;99.90;;;;;;7320284;32;20115;-60
2022/04/27 07:30:55;;;;;;;12.13;5.57;;;11.40;99.90;;;;;;7317079;32;20120;-62
2022/04/27 07:34:57;;;;;;;9.82;5.00;;;11.10;99.90;;;;;;7323451;32;21023;-62
2022/04/27 07:38:58;;;;;;;10.85;4.65;;;11.00;99.90;;;;;;7325211;32;20304;-61
2022/04/27 07:43:00;;;;;;;9.48;4.87;;;10.80;99.90;;;;;;7322840;32;20228;-61
2022/04/27 07:47:02;;;;;;;9.25;4.72;;;10.70;99.90;;;;;;7318252;32;20127;-61
2022/04/27 07:51:07;;;;;;;11.90;5.45;;;10.50;99.90;;;;;;7317536;32;20104;-61
2022/04/27 07:55:10;;;;;;;9.45;5.15;;;10.50;99.90;;;;;;7317199;32;20232;-63
2022/04/27 07:59:12;;;;;;;5.35;3.83;;;10.70;99.90;;;;;;7317579;32;20173;-61
2022/04/27 08:03:13;;;;;;;6.60;4.00;;;11.00;99.90;;;;;;7315336;32;20444;-61
2022/04/27 08:07:15;;;;;;;6.93;5.05;;;11.40;99.90;;;;;;7319040;32;20181;-63
2022/04/27 08:11:17;;;;;;;9.30;4.00;;;11.40;99.90;;;;;;7315009;32;20705;-63
2022/04/27 08:15:21;;;;;;;9.27;4.07;;;11.70;99.90;;;;;;7317176;32;20262;-64
2022/04/27 08:19:23;;;;;;;10.27;4.53;;;11.70;99.90;;;;;;7319390;32;20197;-61
2022/04/27 08:23:28;;;;;;;8.50;4.65;;;11.90;99.90;;;;;;7321671;32;20159;-62
2022/04/27 08:27:30;;;;;;;6.60;4.32;;;12.00;99.90;;;;;;7314546;32;20230;-60
2022/04/27 08:31:31;;;;;;;10.95;4.85;;;12.30;99.90;;;;;;7323523;32;20138;-61
2022/04/27 08:35:34;;;;;;;10.05;5.28;;;12.20;99.90;;;;;;7310766;32;20358;-60
2022/04/27 08:39:35;;;;;;;8.70;4.65;;;11.90;99.90;;;;;;7321415;32;20107;-62
2022/04/27 08:43:37;;;;;;;9.32;5.00;;;11.90;99.90;;;;;;7320643;32;20108;-62
2022/04/27 08:47:39;;;;;;;9.60;5.30;;;12.00;99.90;;;;;;7319388;32;20210;-61
2022/04/27 08:51:40;;;;;;;9.18;5.00;;;12.30;99.90;;;;;;7317754;32;20229;-61
2022/04/27 08:55:51;;;;;;;11.18;4.95;;;12.50;99.90;;;;;;7318400;32;20277;-63
2022/04/27 08:59:53;;;;;;;10.80;5.35;;;13.60;99.90;;;;;;7315205;32;20210;-61
2022/04/27 09:04:17;;;;;;;10.25;5.10;;;14.70;99.90;;;;;;7323081;32;20139;-62
2022/04/27 09:08:19;;;;;;;8.75;5.35;;;15.10;99.90;;;;;;7320129;32;20229;-63
2022/04/27 09:12:21;;;;;;;8.80;5.30;;;15.70;99.90;;;;;;7316552;32;20103;-62
2022/04/27 09:20:46;;;;;;;8.02;4.97;;;16.10;99.90;;;;;;7317102;32;20585;-63
2022/04/27 09:21:00;;;;;;;6.35;4.60;;;17.60;96.80;;;;;;7319024;32;20279;-62
2022/04/27 09:25:01;;;;;;;9.13;4.95;;;17.40;99.90;;;;;;7313166;32;20112;-64
2022/04/27 09:29:05;;;;;;;6.25;5.22;;;17.80;92.30;;;;;;7310795;32;20876;-62
2022/04/27 09:33:07;;;;;;;8.15;5.03;;;17.60;88.30;;;;;;7314234;32;20149;-62
2022/04/27 09:37:17;;;;;;;6.68;4.80;;;18.30;90.20;;;;;;7316598;32;20199;-62
2022/04/27 09:41:42;;;;;;;8.38;5.35;;;18.40;90.20;;;;;;7325786;32;20115;-63
2022/04/27 09:45:44;;;;;;;9.40;5.20;;;18.70;84.20;;;;;;7315372;32;20166;-62
2022/04/27 09:49:53;;;;;;;8.88;5.30;;;18.40;83.30;;;;;;7307814;32;20238;-65
2022/04/27 09:53:59;;;;;;;10.05;6.05;;;17.80;85.70;;;;;;7297473;32;20211;-62
2022/04/27 09:58:01;;;;;;;9.48;5.43;;;17.90;80.50;;;;;;7290295;32;20264;-63
2022/04/27 10:02:10;;;;;;;7.93;5.53;;;17.70;82.50;;;;;;7292600;32;20974;-62
2022/04/27 10:06:13;;;;;;;9.38;4.87;;;17.80;81.60;;;;;;7295639;32;20978;-62
2022/04/27 10:10:16;;;;;;;10.27;5.62;;;18.30;81.80;;;;;;7299213;32;20337;-62
2022/04/27 10:14:19;;;;;;;11.00;5.80;;;17.60;81.50;;;;;;7291768;32;20219;-65
2022/04/27 10:18:21;;;;;;;9.77;5.80;;;18.70;80.70;;;;;;7290716;32;20978;-63
2022/04/27 10:22:31;;;;;;;8.98;5.87;;;18.20;80.50;;;;;;7316346;32;20823;-64
2022/04/27 10:26:33;;;;;;;11.65;6.03;;;18.30;83.90;;;;;;7311014;32;20224;-62
2022/04/27 10:30:45;;;;;;;9.95;5.62;;;18.90;78.90;;;;;;7296914;32;20195;-63
2022/04/27 10:35:17;;;;;;;11.75;6.55;;;18.60;74.70;;;;;;7297461;32;20282;-63
2022/04/27 10:39:27;;;;;;;9.75;6.37;;;17.90;74.80;;;;;;7297476;32;20395;-63
2022/04/27 10:43:43;;;;;;;7.78;6.07;;;17.90;76.20;;;;;;7299618;32;20285;-63
2022/04/27 10:47:44;;;;;;;8.80;6.00;;;17.60;90.90;;;;;;7297849;32;20206;-64
2022/04/27 10:52:03;;;;;;;10.30;5.87;;;17.10;80.50;;;;;;7300485;32;20226;-65
2022/04/27 10:56:22;;;;;;;8.88;5.90;;;17.60;80.90;;;;;;7297142;32;20589;-65
2022/04/27 11:00:24;;;;;;;10.48;5.82;;;17.80;85.00;;;;;;7293756;32;22164;-63
2022/04/27 11:04:45;;;;;;;8.73;5.95;;;17.10;81.80;;;;;;7298386;32;20270;-63
2022/04/27 11:09:02;;;;;;;9.55;6.60;;;16.60;87.60;;;;;;7290729;32;20189;-63
2022/04/27 11:13:05;;;;;;;10.88;6.57;;;16.40;90.80;;;;;;7296988;32;20469;-63
2022/04/27 11:17:06;;;;;;;7.93;6.90;;;15.90;88.80;;;;;;7301119;32;20507;-64
2022/04/27 11:21:08;;;;;;;9.77;7.10;;;15.40;90.30;;;;;;7319388;32;20234;-65
2022/04/27 11:25:11;;;;;;;13.07;6.75;;;15.40;90.50;;;;;;7319963;32;20134;-58
2022/04/27 11:29:14;;;;;;;10.75;6.18;;;15.90;93.30;;;;;;7317857;32;20325;-59
2022/04/27 11:33:16;;;;;;;9.57;6.28;;;16.30;93.10;;;;;;7317749;32;20134;-60
2022/04/27 11:37:20;;;;;;;9.27;6.82;;;16.00;92.20;;;;;;7315227;32;20111;-61
2022/04/27 11:41:25;;;;;;;9.13;5.78;;;16.30;90.40;;;;;;7315631;32;20196;-62
2022/04/27 11:45:27;;;;;;;10.05;6.97;;;16.50;95.00;;;;;;7318514;32;20279;-61
2022/04/27 11:49:29;;;;;;;9.90;6.57;;;16.40;86.10;;;;;;7317937;32;20269;-61
2022/04/27 11:53:31;;;;;;;7.15;5.95;;;16.20;90.60;;;;;;7321330;32;20142;-60
2022/04/27 11:57:32;;;;;;;12.20;7.50;;;16.30;92.30;;;;;;7320094;32;20942;-60
2022/04/27 12:01:34;;;;;;;10.88;7.03;;;16.20;90.10;;;;;;7319131;32;20236;-62
2022/04/27 12:05:37;;;;;;;7.93;6.53;;;15.70;90.80;;;;;;7312566;32;20217;-59
2022/04/27 12:09:39;;;;;;;11.55;6.45;;;16.00;94.60;;;;;;7315622;32;20135;-60
2022/04/27 12:13:41;;;;;;;10.23;6.90;;;16.50;93.80;;;;;;7316612;32;20143;-59
2022/04/27 12:17:47;;;;;;;8.02;6.70;;;16.50;92.40;;;;;;7316320;32;20126;-62
2022/04/27 12:21:49;;;;;;;10.15;7.28;;;16.60;91.40;;;;;;7318964;32;20315;-61
2022/04/27 12:25:53;;;;;;;10.75;7.05;;;16.50;93.10;;;;;;7320306;32;20198;-61
2022/04/27 12:30:06;;;;;;;10.02;7.15;;;16.00;91.20;;;;;;7311579;32;20531;-61
2022/04/27 12:37:29;;;;;;;8.73;6.28;;;16.00;91.60;;;;;;7323022;32;20119;-62
2022/04/27 12:38:31;;;;;;;11.30;7.80;;;16.10;94.20;;;;;;7321660;32;20210;-60
2022/04/27 12:42:34;;;;;;;12.65;7.47;;;16.20;92.50;;;;;;7322686;32;20194;-60
2022/04/27 12:46:40;;;;;;;10.65;7.20;;;16.20;91.80;;;;;;7322146;32;20191;-63
2022/04/27 12:50:49;;;;;;;9.65;7.15;;;16.20;92.70;;;;;;7322938;32;20216;-62
2022/04/27 12:55:02;;;;;;;11.07;7.62;;;16.10;92.00;;;;;;7320648;32;20123;-62
2022/04/27 12:59:05;;;;;;;12.27;7.87;;;15.60;92.00;;;;;;7321324;32;20563;-62
2022/04/27 13:03:08;;;;;;;11.43;7.28;;;15.80;91.20;;;;;;7316877;32;20492;-61
2022/04/27 13:07:10;;;;;;;9.38;7.57;;;16.00;94.60;;;;;;7319235;32;20232;-61
2022/04/27 13:15:32;;;;;;;10.93;7.80;;;16.80;94.40;;;;;;7318688;32;20194;-61
2022/04/27 13:19:34;;;;;;;11.88;7.78;;;16.90;90.60;;;;;;7316919;32;20740;-60
2022/04/27 13:23:37;;;;;;;8.43;6.97;;;17.10;91.10;;;;;;7319803;32;20310;-61
2022/04/27 13:27:40;;;;;;;11.12;7.43;;;17.20;91.40;;;;;;7319649;32;20107;-61
2022/04/27 13:31:42;;;;;;;10.13;6.72;;;16.50;88.10;;;;;;7318228;32;20111;-62
2022/04/27 13:35:44;;;;;;;10.70;7.43;;;16.20;90.20;;;;;;7320932;32;20173;-61
2022/04/27 13:39:47;;;;;;;12.13;7.80;;;16.50;91.90;;;;;;7322374;32;20611;-61
2022/04/27 13:43:51;;;;;;;8.10;7.20;;;16.70;92.10;;;;;;7319923;32;20108;-61
2022/04/27 13:47:53;;;;;;;13.75;8.25;;;16.70;91.40;;;;;;7322223;32;20139;-61
2022/04/27 13:51:55;;;;;;;13.10;8.15;;;16.70;90.50;;;;;;7318857;32;20166;-63
2022/04/27 13:55:57;;;;;;;9.75;7.20;;;16.50;88.70;;;;;;7316225;32;20107;-62
2022/04/27 13:59:58;;;;;;;11.43;7.05;;;16.20;91.20;;;;;;7309572;32;20158;-60
2022/04/27 14:04:00;;;;;;;9.43;7.55;;;16.60;91.40;;;;;;7325094;32;20222;-59
2022/04/27 14:08:02;;;;;;;8.80;7.22;;;16.60;90.90;;;;;;7323554;32;20587;-62
2022/04/27 14:20:47;;;;;;;14.35;6.20;;;17.20;91.20;;;;;;7327624;32;20249;-62
2022/04/27 14:24:48;;;;;;;10.23;7.18;;;17.30;90.40;;;;;;7324855;32;20138;-62
2022/04/27 14:28:50;;;;;;;10.18;6.78;;;17.20;88.10;;;;;;7326081;32;20229;-61
2022/04/27 14:32:52;;;;;;;11.10;7.55;;;17.40;90.30;;;;;;7306746;32;20119;-61
2022/04/27 14:36:54;;;;;;;11.60;7.50;;;17.50;90.90;;;;;;7308868;32;20226;-62
2022/04/27 14:40:56;;;;;;;9.10;6.65;;;17.60;86.60;;;;;;7315887;32;20128;-62
2022/04/27 14:44:57;;;;;;;9.15;7.20;;;17.50;88.90;;;;;;7308312;32;20214;-64
2022/04/27 14:48:59;;;;;;;9.70;6.50;;;17.40;88.10;;;;;;7309684;32;20116;-63
2022/04/27 14:53:06;;;;;;;10.50;6.55;;;17.40;88.10;;;;;;7305686;32;20534;-63
2022/04/27 14:57:15;;;;;;;12.40;6.18;;;17.30;87.50;;;;;;7326204;32;20470;-63
2022/04/27 15:01:16;;;;;;;12.37;6.87;;;17.40;91.30;;;;;;7317693;32;20551;-62
2022/04/27 15:05:19;;;;;;;11.30;6.80;;;17.10;90.30;;;;;;7291372;32;20234;-62
2022/04/27 15:09:21;;;;;;;9.70;6.00;;;17.00;90.30;;;;;;7308779;32;20239;-62
2022/04/27 15:13:23;;;;;;;11.48;7.00;;;17.00;90.10;;;;;;7312087;32;20629;-63
2022/04/27 15:17:25;;;;;;;11.60;7.12;;;16.60;91.70;;;;;;7306725;32;20108;-64
2022/04/27 15:25:53;;;;;;;10.82;6.47;;;16.70;91.30;;;;;;7309587;32;20103;-62
2022/04/27 15:29:55;;;;;;;8.50;5.55;;;16.70;91.10;;;;;;7322456;32;20447;-63
2022/04/27 15:33:57;;;;;;;9.10;7.15;;;16.70;91.20;;;;;;7309549;32;20184;-62
2022/04/27 15:37:59;;;;;;;8.52;5.72;;;16.30;90.70;;;;;;7308153;32;20115;-64
2022/04/27 15:42:06;;;;;;;9.60;6.60;;;16.20;92.90;;;;;;7322329;32;20139;-63
2022/04/27 15:46:08;;;;;;;12.27;6.37;;;16.00;91.30;;;;;;7323142;32;20154;-62
2022/04/27 15:50:10;;;;;;;9.25;6.30;;;15.70;93.10;;;;;;7325496;32;20238;-64
2022/04/27 15:54:11;;;;;;;11.48;6.62;;;15.50;92.10;;;;;;7320920;32;20542;-60
2022/04/27 15:58:13;;;;;;;12.32;7.43;;;15.80;92.40;;;;;;7322288;32;20165;-63
2022/04/27 16:02:15;;;;;;;15.60;9.07;;;15.80;91.10;;;;;;7327358;32;20521;-64
2022/04/27 16:06:17;;;;;;;9.63;7.22;;;15.80;91.50;;;;;;7324394;32;20111;-61
2022/04/27 16:10:18;;;;;;;12.00;7.43;;;15.70;91.40;;;;;;7322578;32;20581;-60
2022/04/27 16:14:21;;;;;;;9.20;6.78;;;15.70;92.40;;;;;;7324415;32;20861;-61
2022/04/27 16:18:23;;;;;;;9.48;7.50;;;15.80;94.10;;;;;;7326234;32;20194;-62
2022/04/27 16:26:46;;;;;;;10.65;7.45;;;15.80;92.50;;;;;;7321842;32;20189;-63
2022/04/27 16:30:47;;;;;;;10.77;7.43;;;15.80;92.40;;;;;;7322900;32;20218;-64
2022/04/27 16:34:49;;;;;;;10.55;6.82;;;15.70;91.90;;;;;;7318873;32;20129;-63
2022/04/27 16:38:51;;;;;;;10.60;7.90;;;15.70;93.10;;;;;;7323026;32;20238;-63
2022/04/27 16:42:53;;;;;;;16.15;10.60;;;15.60;93.10;;;;;;7323570;32;20108;-63
2022/04/27 16:46:55;;;;;;;9.23;6.55;;;15.50;94.00;;;;;;7322203;32;20638;-63
2022/04/27 16:50:56;;;;;;;10.38;5.80;;;15.50;94.00;;;;;;7318284;32;20129;-61
2022/04/27 16:55:00;;;;;;;9.48;5.37;;;15.50;94.60;;;;;;7316746;32;20708;-60
2022/04/27 16:59:02;;;;;;;11.07;5.90;;;15.40;94.20;;;;;;7320198;32;20253;-61
2022/04/27 17:03:04;;;;;;;10.38;5.37;;;15.30;95.70;;;;;;7320586;32;20170;-62
2022/04/27 17:07:05;;;;;;;9.63;5.32;;;15.20;94.80;;;;;;7320109;32;20228;-61
2022/04/27 17:11:09;;;;;;;10.88;5.62;;;15.10;94.90;;;;;;7323265;32;20182;-63
2022/04/27 17:15:10;;;;;;;12.13;5.55;;;15.00;95.40;;;;;;7319060;32;20244;-61
2022/04/27 17:19:12;;;;;;;8.45;4.80;;;14.90;96.60;;;;;;7318285;32;20198;-62
2022/04/27 17:23:14;;;;;;;8.45;4.28;;;14.70;96.80;;;;;;7314908;32;20108;-63
2022/04/27 17:27:29;;;;;;;12.18;5.20;;;14.80;97.10;;;;;;7317256;32;20201;-62
2022/04/27 17:31:31;;;;;;;8.40;6.03;;;14.70;97.60;;;;;;7310846;32;23434;-63
2022/04/27 17:35:33;;;;;;;11.25;4.93;;;14.70;97.30;;;;;;7304117;32;20840;-61
2022/04/27 17:39:35;;;;;;;10.15;5.18;;;14.70;97.00;;;;;;7314006;32;20111;-62
2022/04/27 17:43:40;;;;;;;7.07;4.60;;;14.60;97.50;;;;;;7317593;32;21237;-60
2022/04/27 17:47:42;;;;;;;9.98;4.68;;;14.30;98.70;;;;;;7316554;32;20738;-63
2022/04/27 17:51:44;;;;;;;8.68;4.68;;;14.20;99.30;;;;;;7317828;32;20115;-63
2022/04/27 17:55:46;;;;;;;8.90;4.07;;;14.10;99.90;;;;;;7315769;32;20489;-64
2022/04/27 17:59:48;;;;;;;9.30;4.15;;;14.00;99.90;;;;;;7317018;32;20272;-62
2022/04/27 18:03:51;;;;;;;7.85;4.50;;;14.00;99.90;;;;;;7312510;32;20325;-61
2022/04/27 18:07:53;;;;;;;7.07;5.18;;;13.90;99.90;;;;;;7302357;32;20194;-62
2022/04/27 18:11:56;;;;;;;9.02;5.22;;;13.80;99.90;;;;;;7299651;32;20213;-63
2022/04/27 18:15:58;;;;;;;8.30;4.45;;;13.70;99.90;;;;;;7300723;32;20335;-63
2022/04/27 18:20:00;;;;;;;10.27;4.40;;;13.70;99.90;;;;;;7314399;32;20114;-62
2022/04/27 18:24:02;;;;;;;7.80;4.20;;;13.50;99.90;;;;;;7319419;32;20155;-63
2022/04/27 18:28:05;;;;;;;8.40;4.70;;;13.40;99.90;;;;;;7316970;32;20111;-62
2022/04/27 18:32:07;;;;;;;5.80;4.03;;;13.10;99.90;;;;;;7317657;32;20198;-62
2022/04/27 18:36:09;;;;;;;12.20;4.85;;;13.00;99.90;;;;;;7318128;32;20482;-62
2022/04/27 18:40:11;;;;;;;6.37;4.45;;;12.90;99.90;;;;;;7318285;32;20300;-62
2022/04/27 18:52:55;;;;;;;7.70;4.10;;;12.20;99.90;;;;;;7321435;32;20640;-63
2022/04/27 18:56:56;;;;;;;8.23;4.05;;;12.00;99.90;;;;;;7325008;32;20137;-64
2022/04/27 19:01:04;;;;;;;6.82;4.22;;;11.80;99.90;;;;;;7326211;32;20107;-63
2022/04/27 19:05:06;;;;;;;8.10;4.53;;;11.60;99.90;;;;;;7319778;32;20201;-63
2022/04/27 19:09:08;;;;;;;12.00;4.50;;;11.30;99.90;;;;;;7320779;32;20485;-63
2022/04/27 19:13:09;;;;;;;10.85;4.43;;;11.10;99.90;;;;;;7317923;32;20207;-64
2022/04/27 19:17:11;;;;;;;8.50;4.70;;;10.80;99.90;;;;;;7321425;32;20641;-64
2022/04/27 19:21:13;;;;;;;7.15;4.95;;;10.60;99.90;;;;;;7317781;32;20107;-63
2022/04/27 19:25:15;;;;;;;10.82;5.07;;;10.40;99.90;;;;;;7320450;32;20196;-63
2022/04/27 19:29:17;;;;;;;12.20;5.10;;;10.30;99.90;;;;;;7322903;32;20226;-64
2022/04/27 19:33:19;;;;;;;9.63;4.87;;;10.10;99.90;;;;;;7319290;32;20226;-61
2022/04/27 19:37:20;;;;;;;7.15;4.97;;;9.90;99.90;;;;;;7319541;32;20108;-62
2022/04/27 19:41:22;;;;;;;7.93;5.40;;;9.70;99.90;;;;;;7321759;32;20591;-63
2022/04/27 19:45:24;;;;;;;7.25;5.37;;;9.60;99.90;;;;;;7319000;32;20108;-60
2022/04/27 19:49:25;;;;;;;7.80;4.62;;;9.40;99.90;;;;;;7314598;32;20107;-63
2022/04/27 19:53:27;;;;;;;7.72;5.40;;;9.30;99.90;;;;;;7320104;32;20218;-63
2022/04/27 19:57:29;;;;;;;23.55;14.18;;;9.20;99.90;;;;;;7319830;32;20112;-62
2022/04/27 20:01:31;;;;;;;12.93;6.95;;;9.10;99.90;;;;;;7321738;32;20187;-62
2022/04/27 20:05:33;;;;;;;9.88;5.65;;;9.00;99.90;;;;;;7316094;32;20214;-60
2022/04/27 20:09:34;;;;;;;9.55;5.10;;;8.80;99.90;;;;;;7317701;32;20674;-62
2022/04/27 20:13:36;;;;;;;7.35;5.18;;;8.70;99.90;;;;;;7319213;32;20135;-63
2022/04/27 20:17:39;;;;;;;8.27;5.30;;;8.60;99.90;;;;;;7313150;32;20208;-63
2022/04/27 20:21:40;;;;;;;7.90;5.40;;;8.60;99.90;;;;;;7315788;32;20574;-64
2022/04/27 20:25:42;;;;;;;13.50;6.03;;;8.50;99.90;;;;;;7310222;32;20107;-63
2022/04/27 20:29:44;;;;;;;10.93;5.47;;;8.50;99.90;;;;;;7310479;32;20115;-62
2022/04/27 20:33:46;;;;;;;17.05;5.82;;;8.40;99.90;;;;;;7315944;32;20128;-64
2022/04/27 20:37:47;;;;;;;10.48;5.70;;;8.30;99.90;;;;;;7314990;32;20130;-64
2022/04/27 20:41:49;;;;;;;11.23;5.85;;;8.20;99.90;;;;;;7319938;32;20794;-62
2022/04/27 20:45:50;;;;;;;11.23;5.78;;;8.20;99.90;;;;;;7312207;32;20223;-62
2022/04/27 20:49:52;;;;;;;9.60;5.68;;;8.10;99.90;;;;;;7310106;32;20124;-64
2022/04/27 20:53:54;;;;;;;8.00;5.10;;;8.00;99.90;;;;;;7315918;32;20170;-62
2022/04/27 20:57:58;;;;;;;10.27;5.65;;;7.90;99.90;;;;;;7315022;32;20142;-60
2022/04/27 21:02:00;;;;;;;7.82;5.43;;;7.90;99.90;;;;;;7315673;32;20111;-61
2022/04/27 21:06:02;;;;;;;9.68;4.97;;;7.80;99.90;;;;;;7304505;32;20742;-61
2022/04/27 21:10:04;;;;;;;8.40;6.20;;;7.80;99.90;;;;;;7320514;32;20135;-60
2022/04/27 21:14:06;;;;;;;8.50;5.60;;;7.70;99.90;;;;;;7314427;32;20131;-60
2022/04/27 21:18:07;;;;;;;9.70;5.45;;;7.70;99.90;;;;;;7318968;32;20649;-61
2022/04/27 21:22:09;;;;;;;8.68;5.30;;;7.60;99.90;;;;;;7315200;32;20456;-60
2022/04/27 21:26:11;;;;;;;12.90;5.40;;;7.60;99.90;;;;;;7313047;32;20198;-61
2022/04/27 21:30:13;;;;;;;16.15;11.07;;;7.60;99.90;;;;;;7309032;32;20217;-60
2022/04/27 21:34:14;;;;;;;9.98;5.10;;;7.60;99.90;;;;;;7313089;32;20103;-59